Sct Zurich — V7NG2 — position and weather

sailwx.info

Track history (hours):
 
Tides and Currents Weather Stations Pressure Air Temp Water Temp Dewpoint Dewpoint Depression Visibility Wind Speed Wind Dir Waves Ship Positions

Sct Zurich

Last reported at 2014-Sep-01 19:27 UTC. Time now 2014-Sep-02 02:21 UTC.
Position N 36°21' W 010°06'.

Length 294 m; draft 10 m.

Type: Ship (hazmat cat C). MMSI: 538002956.

Date/timePositionNaut miles runAvg speedWind from/ knotsBaromVisibWave heightAir tempDewpointWater temp
2014-Sep-01 19:27N 36°21' W 010°06'1415.9
2014-Sep-01 18:33N 36°18' W 009°49'5016.0
2014-Sep-01 15:26N 36°06' W 008°49'16516.1
2014-Sep-01 05:13N 35°60' W 005°25'25915.6
2014-Aug-31 12:33N 37°41' W 000°27'1717.3
2014-Aug-31 11:33N 37°56' W 000°16'8613.6
2014-Aug-31 05:13N 39°22' W 000°10'812.0
2014-Aug-31 04:34N 39°26' W 000°19'0 0.1
2014-Aug-30 23:33N 39°26' W 000°19'0 0.0
2014-Aug-30 22:33N 39°26' W 000°19'0 0.0
2014-Aug-30 21:30N 39°26' W 000°19'0 0.0
2014-Aug-30 20:33N 39°26' W 000°19'0 0.0
2014-Aug-30 19:12N 39°26' W 000°19'0 0.0
2014-Aug-30 18:27N 39°26' W 000°19'0 0.0
2014-Aug-30 17:33N 39°26' W 000°19'0 0.0
2014-Aug-30 16:18N 39°26' W 000°19'0 0.0
2014-Aug-30 15:33N 39°26' W 000°19'0 0.0
2014-Aug-30 14:27N 39°26' W 000°19'0 0.0
2014-Aug-30 13:30N 39°26' W 000°19'0 0.0
2014-Aug-30 12:33N 39°26' W 000°19'0 0.0
2014-Aug-30 11:15N 39°26' W 000°19'0 0.0
2014-Aug-30 10:33N 39°26' W 000°19'5 5.2
2014-Aug-30 09:33N 39°25' W 000°13'5413.5
2014-Aug-30 05:33N 39°21' E 000°57'1413.5
2014-Aug-30 04:33N 39°20' E 001°15'1313.1
2014-Aug-30 03:33N 39°20' E 001°31'1313.5
2014-Aug-30 02:33N 39°19' E 001°49'1413.5
2014-Aug-30 01:33N 39°15' E 002°06'1413.7
2014-Aug-30 00:33N 39°10' E 002°22'1413.6
2014-Aug-29 23:33N 39°05' E 002°38'1413.7
2014-Aug-29 22:33N 39°01' E 002°55'1413.7
2014-Aug-29 21:33N 38°57' E 003°12'1413.7
2014-Aug-29 20:33N 38°54' E 003°29'1413.7
2014-Aug-29 19:33N 38°51' E 003°46'1414.0
2014-Aug-29 18:33N 38°47' E 004°04'1514.8
2014-Aug-29 17:33N 38°44' E 004°22'1514.6
2014-Aug-29 16:33N 38°40' E 004°40'1514.8
2014-Aug-29 15:33N 38°37' E 004°59'1514.7
2014-Aug-29 14:33N 38°33' E 005°17'5914.0
2014-Aug-29 10:19N 38°19' E 006°30'1114.2
2014-Aug-29 09:33N 38°17' E 006°44'1814.2
2014-Aug-29 08:16N 38°12' E 007°07'1014.2
2014-Aug-29 07:33N 38°10' E 007°19'1615.6
2014-Aug-29 06:33N 38°06' E 007°38'1515.5
2014-Aug-29 05:33N 38°03' E 007°57'1513.9
2014-Aug-29 04:30N 37°59' E 008°15'1713.8
2014-Aug-29 03:18N 37°55' E 008°36'3813.6
2014-Aug-29 00:30N 37°46' E 009°23'1213.1
2014-Aug-28 23:34N 37°43' E 009°38'1313.2
2014-Aug-28 22:33N 37°40' E 009°54'1313.2
2014-Aug-28 21:33N 37°39' E 010°11'2713.7
2014-Aug-28 19:33N 37°35' E 010°45'1414.3
2014-Aug-28 18:33N 37°32' E 011°02'1414.2
2014-Aug-28 17:33N 37°24' E 011°18'1614.3
2014-Aug-28 16:28N 37°17' E 011°35'1314.0
2014-Aug-28 15:33N 37°10' E 011°49'1414.0
2014-Aug-28 14:34N 37°04' E 012°04'1414.2
2014-Aug-28 13:33N 36°59' E 012°21'1414.3
2014-Aug-28 12:33N 36°55' E 012°38'1414.3
2014-Aug-28 11:33N 36°50' E 012°55'1414.1
2014-Aug-28 10:33N 36°45' E 013°12'1414.2
2014-Aug-28 09:33N 36°41' E 013°28'1414.4
2014-Aug-28 08:33N 36°36' E 013°45'1414.4
2014-Aug-28 07:33N 36°31' E 014°02'1414.2
2014-Aug-28 06:33N 36°26' E 014°19'1414.2
2014-Aug-28 05:33N 36°22' E 014°36'1414.2
2014-Aug-28 04:33N 36°17' E 014°52'1614.2
2014-Aug-28 03:27N 36°12' E 015°11'1314.5
2014-Aug-28 02:33N 36°09' E 015°27'1414.4
2014-Aug-28 01:33N 36°06' E 015°44'48414.7
2014-Aug-26 16:32N 33°36' E 025°05'1414.7
2014-Aug-26 15:34N 33°32' E 025°22'15116.3
2014-Aug-26 06:19N 32°46' E 028°13'1315.3
2014-Aug-26 05:29N 32°42' E 028°27'1415.4
2014-Aug-26 04:33N 32°38' E 028°43'1915.8
2014-Aug-26 03:20N 32°32' E 029°05'1615.8
2014-Aug-26 02:21N 32°27' E 029°23'1215.4
2014-Aug-26 01:34N 32°24' E 029°37'1515.0
2014-Aug-26 00:33N 32°19' E 029°54'2114.9
2014-Aug-25 23:08N 32°12' E 030°18'814.8
2014-Aug-25 22:33N 32°10' E 030°27'1514.5
2014-Aug-25 21:33N 32°05' E 030°43'1514.6
2014-Aug-25 20:33N 32°01' E 030°60'1414.5
2014-Aug-25 19:34N 31°57' E 031°16'1414.5
2014-Aug-25 18:34N 31°52' E 031°32'1514.5
2014-Aug-25 17:33N 31°49' E 031°49'1613.8
2014-Aug-25 16:22N 31°40' E 032°05'1214.7
2014-Aug-25 15:34N 31°32' E 032°15'1312.7
2014-Aug-25 14:33N 31°21' E 032°23'1110.7
2014-Aug-25 13:31N 31°10' E 032°20'10 9.9
2014-Aug-25 12:34N 31°00' E 032°19'  
Track history (hours):
 
Tides and Currents Weather Stations Pressure Air Temp Water Temp Dewpoint Dewpoint Depression Visibility Wind Speed Wind Dir Waves Ship Positions

Sct Zurich

Last reported at 2014-Sep-01 19:27 UTC. Time now 2014-Sep-02 02:21 UTC.
Position N 36°21' W 010°06'.

Length 294 m; draft 10 m.

Type: Ship (hazmat cat C). MMSI: 538002956.

Date/timePositionNaut miles runAvg speedWind from/ knotsBaromVisibWave heightAir tempDewpointWater temp
2014-Sep-01 19:27N 36°21' W 010°06'1415.9
2014-Sep-01 18:33N 36°18' W 009°49'5016.0
2014-Sep-01 15:26N 36°06' W 008°49'16516.1
2014-Sep-01 05:13N 35°60' W 005°25'25915.6
2014-Aug-31 12:33N 37°41' W 000°27'1717.3
2014-Aug-31 11:33N 37°56' W 000°16'8613.6
2014-Aug-31 05:13N 39°22' W 000°10'812.0
2014-Aug-31 04:34N 39°26' W 000°19'0 0.1
2014-Aug-30 23:33N 39°26' W 000°19'0 0.0
2014-Aug-30 22:33N 39°26' W 000°19'0 0.0
2014-Aug-30 21:30N 39°26' W 000°19'0 0.0
2014-Aug-30 20:33N 39°26' W 000°19'0 0.0
2014-Aug-30 19:12N 39°26' W 000°19'0 0.0
2014-Aug-30 18:27N 39°26' W 000°19'0 0.0
2014-Aug-30 17:33N 39°26' W 000°19'0 0.0
2014-Aug-30 16:18N 39°26' W 000°19'0 0.0
2014-Aug-30 15:33N 39°26' W 000°19'0 0.0
2014-Aug-30 14:27N 39°26' W 000°19'0 0.0
2014-Aug-30 13:30N 39°26' W 000°19'0 0.0
2014-Aug-30 12:33N 39°26' W 000°19'0 0.0
2014-Aug-30 11:15N 39°26' W 000°19'0 0.0
2014-Aug-30 10:33N 39°26' W 000°19'5 5.2
2014-Aug-30 09:33N 39°25' W 000°13'5413.5
2014-Aug-30 05:33N 39°21' E 000°57'1413.5
2014-Aug-30 04:33N 39°20' E 001°15'1313.1
2014-Aug-30 03:33N 39°20' E 001°31'1313.5
2014-Aug-30 02:33N 39°19' E 001°49'1413.5
2014-Aug-30 01:33N 39°15' E 002°06'1413.7
2014-Aug-30 00:33N 39°10' E 002°22'1413.6
2014-Aug-29 23:33N 39°05' E 002°38'1413.7
2014-Aug-29 22:33N 39°01' E 002°55'1413.7
2014-Aug-29 21:33N 38°57' E 003°12'1413.7
2014-Aug-29 20:33N 38°54' E 003°29'1413.7
2014-Aug-29 19:33N 38°51' E 003°46'1414.0
2014-Aug-29 18:33N 38°47' E 004°04'1514.8
2014-Aug-29 17:33N 38°44' E 004°22'1514.6
2014-Aug-29 16:33N 38°40' E 004°40'1514.8
2014-Aug-29 15:33N 38°37' E 004°59'1514.7
2014-Aug-29 14:33N 38°33' E 005°17'5914.0
2014-Aug-29 10:19N 38°19' E 006°30'1114.2
2014-Aug-29 09:33N 38°17' E 006°44'1814.2
2014-Aug-29 08:16N 38°12' E 007°07'1014.2
2014-Aug-29 07:33N 38°10' E 007°19'1615.6
2014-Aug-29 06:33N 38°06' E 007°38'1515.5
2014-Aug-29 05:33N 38°03' E 007°57'1513.9
2014-Aug-29 04:30N 37°59' E 008°15'1713.8
2014-Aug-29 03:18N 37°55' E 008°36'3813.6
2014-Aug-29 00:30N 37°46' E 009°23'1213.1
2014-Aug-28 23:34N 37°43' E 009°38'1313.2
2014-Aug-28 22:33N 37°40' E 009°54'1313.2
2014-Aug-28 21:33N 37°39' E 010°11'2713.7
2014-Aug-28 19:33N 37°35' E 010°45'1414.3
2014-Aug-28 18:33N 37°32' E 011°02'1414.2
2014-Aug-28 17:33N 37°24' E 011°18'1614.3
2014-Aug-28 16:28N 37°17' E 011°35'1314.0
2014-Aug-28 15:33N 37°10' E 011°49'1414.0
2014-Aug-28 14:34N 37°04' E 012°04'1414.2
2014-Aug-28 13:33N 36°59' E 012°21'1414.3
2014-Aug-28 12:33N 36°55' E 012°38'1414.3
2014-Aug-28 11:33N 36°50' E 012°55'1414.1
2014-Aug-28 10:33N 36°45' E 013°12'1414.2
2014-Aug-28 09:33N 36°41' E 013°28'1414.4
2014-Aug-28 08:33N 36°36' E 013°45'1414.4
2014-Aug-28 07:33N 36°31' E 014°02'1414.2
2014-Aug-28 06:33N 36°26' E 014°19'1414.2
2014-Aug-28 05:33N 36°22' E 014°36'1414.2
2014-Aug-28 04:33N 36°17' E 014°52'1614.2
2014-Aug-28 03:27N 36°12' E 015°11'1314.5
2014-Aug-28 02:33N 36°09' E 015°27'1414.4
2014-Aug-28 01:33N 36°06' E 015°44'48414.7
2014-Aug-26 16:32N 33°36' E 025°05'1414.7
2014-Aug-26 15:34N 33°32' E 025°22'15116.3
2014-Aug-26 06:19N 32°46' E 028°13'1315.3
2014-Aug-26 05:29N 32°42' E 028°27'1415.4
2014-Aug-26 04:33N 32°38' E 028°43'1915.8
2014-Aug-26 03:20N 32°32' E 029°05'1615.8
2014-Aug-26 02:21N 32°27' E 029°23'1215.4
2014-Aug-26 01:34N 32°24' E 029°37'1515.0
2014-Aug-26 00:33N 32°19' E 029°54'2114.9
2014-Aug-25 23:08N 32°12' E 030°18'814.8
2014-Aug-25 22:33N 32°10' E 030°27'1514.5
2014-Aug-25 21:33N 32°05' E 030°43'1514.6
2014-Aug-25 20:33N 32°01' E 030°60'1414.5
2014-Aug-25 19:34N 31°57' E 031°16'1414.5
2014-Aug-25 18:34N 31°52' E 031°32'1514.5
2014-Aug-25 17:33N 31°49' E 031°49'1613.8
2014-Aug-25 16:22N 31°40' E 032°05'1214.7
2014-Aug-25 15:34N 31°32' E 032°15'1312.7
2014-Aug-25 14:33N 31°21' E 032°23'1110.7
2014-Aug-25 13:31N 31°10' E 032°20'10 9.9
2014-Aug-25 12:34N 31°00' E 032°19'  

Dump ship's entire track history